KVSF/VSF METAR and TAF weather

Enter ICAO airport designator
Station Type Date Time Source
KVSF METAR 2019/12/09 22:02 UTC NOAA

KVSF 092202Z AUTO 00000KT 1 3/4SM -RA BR OVC005 01/00 A2980 RMK AO2 P0001 T00060000


Station Type Date Time Source
KVSF Decoded METAR 2019/12/09 22:02 UTC NOAA

HARTNESS STATE AIRPORT, VT, United States (KVSF) 43-21N 72-31W 175M
Dec 09, 2019 - 05:02 PM EST / 2019.12.09 2202 UTC
Wind: Calm:0
Visibility: 1 3/4 mile(s):0
Sky conditions: overcast
Weather: light rain; mist
Precipitation last hour: 0.01 inches
Temperature: 33.1 F (0.6 C)
Dew Point: 32.0 F (0.0 C)
Relative Humidity: 95%
Pressure (altimeter): 29.8 in. Hg (1009 hPa)
ob: KVSF 092202Z AUTO 00000KT 1 3/4SM -RA BR OVC005 01/00 A2980 RMK AO2 P0001 T00060000
cycle: 22

Station Type Date Time Source
KVSF TAF UTC NOAA

Error!

Example: see airport list